Search for airport 
image banner adimage banner ad
image banner ad

SVHH - Cabimas Hilton

Located in Cabimas, Venezuela

ICAO - SVHH, IATA -

Data provided by Airmate  

General information

Coordinates: N10°28'0" W71°27'0"
Elevation is 2461 feet MSL.
 
Rated:
View ratings: [VIEW]


View others Airports in Falcon

Operational data

Open for public use
Current time UTC:
Current local time:
Weather at : SVMC - Maracaibo / La Chinita Intl ( 32 km )
METAR: SVMC 151902Z AUTO 17005KT NCD 33/23 Q1007
TAF: TAF SVMC 151600Z 1518/1618 07005KT 9999 SCT016 TX34/1518Z TN25/1508Z TEMPO 1518/1522 17003KT 9999 SCT016 BKN100
View NOTAMs / SUP AIP / TFR affecting this airport [VIEW]
Communications frequencies: [VIEW]

Runways:

RWY identifierQFULength (ft)Width (ft)SurfaceLDA (ft)
12115°426566ASP
30295°426566ASP

Airport contact information

Address: Cabimas Venezuela

Satellite view of SVHH